createdAt,value
2019-04-23T00:01:23.840Z,59.28
2019-04-23T00:03:43.536Z,62.51
2019-04-23T00:06:21.689Z,64.47
2019-04-23T00:08:50.139Z,64.06
2019-04-23T00:11:24.068Z,63.55
2019-04-23T00:13:49.871Z,64.12
2019-04-23T00:16:26.391Z,65.79
2019-04-23T00:19:15.282Z,64.24
2019-04-23T00:26:36.625Z,64.17
2019-04-23T00:29:21.108Z,62.78
2019-04-23T00:31:36.292Z,63.04
2019-04-23T00:34:10.572Z,62.07
2019-04-23T00:36:44.514Z,63.01
2019-04-23T00:39:11.163Z,64.67
2019-04-23T00:41:47.476Z,66.08
2019-04-23T00:44:15.181Z,66.90
2019-04-23T00:46:48.656Z,66.03
2019-04-23T00:49:19.843Z,64.54
2019-04-23T00:51:49.729Z,65.45
2019-04-23T00:56:55.428Z,63.75
2019-04-23T00:59:26.923Z,65.02
2019-04-23T01:01:58.006Z,63.49
2019-04-23T01:04:32.780Z,62.58
2019-04-23T01:06:58.323Z,62.53
2019-04-23T01:09:42.276Z,62.82
2019-04-23T01:12:07.454Z,66.03
2019-04-23T01:14:32.587Z,67.45
2019-04-23T01:17:17.236Z,67.79
2019-04-23T01:19:57.713Z,67.72
2019-04-23T01:22:10.614Z,68.06
2019-04-23T01:24:46.691Z,66.93
2019-04-23T01:30:22.203Z,68.06
2019-04-23T01:33:02.605Z,69.24
2019-04-23T01:35:20.358Z,69.45
2019-04-23T01:37:55.690Z,70.48
2019-04-23T01:40:26.599Z,70.00
2019-04-23T01:42:58.684Z,70.12
2019-04-23T01:45:27.302Z,68.01
2019-04-23T01:47:59.709Z,67.00
2019-04-23T01:55:45.453Z,64.88
2019-04-23T02:00:45.163Z,65.68
2019-04-23T02:03:18.185Z,65.42
2019-04-23T02:05:48.347Z,66.78
2019-04-23T02:08:12.865Z,68.66
2019-04-23T02:11:00.602Z,68.86
2019-04-23T02:13:28.128Z,70.10
2019-04-23T02:15:55.794Z,70.84
2019-04-23T02:18:29.565Z,70.02
2019-04-23T02:21:02.443Z,69.74
2019-04-23T02:23:39.215Z,67.84
2019-04-23T02:26:10.862Z,68.61
2019-04-23T02:28:46.311Z,67.64
2019-04-23T02:33:49.826Z,68.85
2019-04-23T02:36:18.406Z,68.82
2019-04-23T02:41:26.556Z,68.95
2019-04-23T02:44:04.910Z,69.41
2019-04-23T02:46:15.194Z,70.41
2019-04-23T02:56:41.372Z,66.55
2019-04-23T03:01:54.894Z,67.10
2019-04-23T03:09:12.858Z,64.66
2019-04-23T03:14:15.870Z,64.84
2019-04-23T03:16:54.997Z,66.00
2019-04-23T03:19:25.567Z,65.79
2019-04-23T03:21:57.618Z,65.81
2019-04-23T03:25:05.339Z,65.38
2019-04-23T03:27:22.899Z,65.68
2019-04-23T03:29:57.577Z,65.01
2019-04-23T03:37:33.948Z,62.57
2019-04-23T03:42:38.640Z,62.77
2019-04-23T03:45:08.400Z,61.63
2019-04-23T03:55:16.294Z,60.01
2019-04-23T04:00:33.186Z,58.93
2019-04-23T04:05:22.309Z,56.84
2019-04-23T04:10:16.194Z,56.77
2019-04-23T04:15:53.524Z,55.01
2019-04-23T04:18:06.729Z,56.19
2019-04-23T04:23:14.663Z,55.40
2019-04-23T04:30:38.811Z,54.21
2019-04-23T04:33:31.584Z,53.86
2019-04-23T04:36:00.702Z,52.75
2019-04-23T04:46:17.327Z,50.78
2019-04-23T04:48:33.429Z,49.67
2019-04-23T04:51:28.902Z,49.34
2019-04-23T04:56:21.344Z,52.23
2019-04-23T04:58:46.525Z,53.40
2019-04-23T05:01:16.475Z,53.59
2019-04-23T05:03:58.458Z,52.71
2019-04-23T05:08:54.500Z,51.14
2019-04-23T05:13:51.562Z,53.16
2019-04-23T05:19:16.113Z,54.04
2019-04-23T05:21:43.152Z,53.38
2019-04-23T05:24:06.611Z,53.40
2019-04-23T05:29:14.553Z,49.52
2019-04-23T05:31:34.159Z,48.97
2019-04-23T05:34:07.986Z,48.48
2019-04-23T05:36:49.898Z,48.33
2019-04-23T05:39:20.836Z,47.84
2019-04-23T05:41:49.953Z,47.62
2019-04-23T05:44:21.173Z,47.78
2019-04-23T05:47:14.989Z,46.92
2019-04-23T05:54:30.045Z,45.46
2019-04-23T05:56:55.296Z,44.25
2019-04-23T05:59:42.834Z,44.84
2019-04-23T06:01:57.021Z,44.53
2019-04-23T06:04:32.480Z,45.18
2019-04-23T06:09:30.360Z,44.47
2019-04-23T06:12:18.742Z,44.52
2019-04-23T06:14:44.521Z,42.86
2019-04-23T06:19:43.196Z,41.21
2019-04-23T06:24:45.047Z,40.02
2019-04-23T06:27:18.242Z,40.94
2019-04-23T06:29:43.227Z,40.89
2019-04-23T06:32:19.350Z,38.52
2019-04-23T06:34:54.988Z,40.43
2019-04-23T06:37:27.070Z,39.03
2019-04-23T06:39:55.058Z,37.55
2019-04-23T06:42:22.858Z,37.10
2019-04-23T06:47:27.780Z,31.94
2019-04-23T06:49:59.342Z,28.82
2019-04-23T06:52:25.209Z,24.86
2019-04-23T06:55:11.516Z,21.41
2019-04-23T06:57:36.747Z,19.98
2019-04-23T07:00:08.012Z,19.59
2019-04-23T07:02:49.535Z,20.62
2019-04-23T07:05:20.601Z,19.09
2019-04-23T07:10:21.933Z,16.72
2019-04-23T07:12:52.292Z,16.24
2019-04-23T07:15:33.249Z,15.30
2019-04-23T07:17:47.756Z,15.54
2019-04-23T07:20:27.365Z,14.65
2019-04-23T07:22:56.904Z,14.22
2019-04-23T07:25:29.663Z,13.51
2019-04-23T07:27:59.015Z,12.95
2019-04-23T07:30:33.410Z,13.18
2019-04-23T07:33:11.557Z,12.60
2019-04-23T07:35:45.250Z,11.76
2019-04-23T07:38:40.646Z,11.76
2019-04-23T07:41:20.913Z,11.61
2019-04-23T07:44:00.985Z,11.90
2019-04-23T07:46:56.280Z,12.40
2019-04-23T07:49:10.179Z,10.58
2019-04-23T07:51:48.201Z,10.32
2019-04-23T07:56:57.883Z,11.44
2019-04-23T07:59:27.725Z,10.52
2019-04-23T08:01:53.296Z,11.01
2019-04-23T08:04:33.554Z,9.12
2019-04-23T08:06:55.953Z,9.20
2019-04-23T08:09:24.600Z,10.84
2019-04-23T08:11:56.159Z,9.19
2019-04-23T08:14:36.138Z,9.50
2019-04-23T08:16:58.217Z,9.30
2019-04-23T08:19:42.495Z,8.93
2019-04-23T08:22:12.814Z,8.48
2019-04-23T08:24:45.319Z,8.65
2019-04-23T08:27:24.071Z,7.74
2019-04-23T08:29:41.075Z,7.80
2019-04-23T08:32:21.470Z,7.42
2019-04-23T08:34:51.771Z,8.43
2019-04-23T08:37:26.595Z,9.12
2019-04-23T08:42:45.357Z,8.96
2019-04-23T08:45:28.542Z,8.29
2019-04-23T08:47:54.330Z,8.53
2019-04-23T08:50:24.864Z,7.66
2019-04-23T08:52:52.177Z,8.60
2019-04-23T08:57:47.426Z,7.66
2019-04-23T09:00:33.102Z,7.84
2019-04-23T09:03:00.208Z,7.81
2019-04-23T09:08:07.136Z,7.51
2019-04-23T09:13:33.234Z,8.18
2019-04-23T09:20:35.865Z,8.66
2019-04-23T09:23:13.217Z,9.44
2019-04-23T09:28:31.141Z,9.12
2019-04-23T09:30:57.801Z,8.28
2019-04-23T09:33:31.241Z,8.41
2019-04-23T09:36:06.806Z,7.31
2019-04-23T09:38:50.244Z,7.49
2019-04-23T09:43:57.876Z,7.44
2019-04-23T09:46:23.407Z,8.09
2019-04-23T09:49:15.512Z,7.52
2019-04-23T09:51:31.343Z,7.11
2019-04-23T09:54:02.918Z,6.91
2019-04-23T09:56:37.669Z,6.62
2019-04-23T09:59:08.968Z,6.79
2019-04-23T10:01:29.100Z,6.97
2019-04-23T10:03:57.606Z,7.04
2019-04-23T10:06:20.819Z,7.00
2019-04-23T10:08:50.036Z,6.47
2019-04-23T10:11:19.673Z,6.38
2019-04-23T10:13:48.407Z,6.69
2019-04-23T10:16:23.312Z,7.21
2019-04-23T10:18:57.379Z,8.06
2019-04-23T10:21:27.196Z,6.93
2019-04-23T10:23:57.204Z,6.58
2019-04-23T10:26:28.288Z,6.79
2019-04-23T10:29:07.624Z,5.91
2019-04-23T10:31:37.621Z,5.16
2019-04-23T10:34:08.255Z,5.17
2019-04-23T10:36:38.721Z,4.88
2019-04-23T10:39:17.541Z,5.11
2019-04-23T10:41:45.378Z,4.48
2019-04-23T10:44:14.568Z,4.33
2019-04-23T10:47:27.150Z,4.05
2019-04-23T10:49:59.783Z,3.97
2019-04-23T10:55:00.043Z,4.13
2019-04-23T10:57:25.074Z,4.86
2019-04-23T10:59:58.626Z,5.55
2019-04-23T11:02:47.358Z,5.64
2019-04-23T11:05:28.949Z,5.06
2019-04-23T11:07:45.450Z,4.56
2019-04-23T11:10:11.217Z,4.19
2019-04-23T11:13:02.549Z,4.87
2019-04-23T11:15:50.692Z,5.47
2019-04-23T11:17:59.492Z,4.64
2019-04-23T11:23:06.500Z,4.18
2019-04-23T11:25:57.711Z,3.45
2019-04-23T11:28:22.616Z,3.42
2019-04-23T11:30:55.276Z,3.87
2019-04-23T11:33:51.005Z,4.12
2019-04-23T11:36:35.545Z,3.71
2019-04-23T11:41:15.103Z,3.91
2019-04-23T11:43:37.710Z,3.65
2019-04-23T11:53:50.972Z,3.82
2019-04-23T11:56:46.058Z,3.35
2019-04-23T11:58:49.530Z,3.64
2019-04-23T12:01:42.809Z,3.61
2019-04-23T12:04:05.431Z,3.59
2019-04-23T12:06:51.080Z,3.12
2019-04-23T12:09:09.925Z,3.47
2019-04-23T12:14:39.126Z,3.33
2019-04-23T12:17:22.687Z,3.36
2019-04-23T12:22:18.062Z,3.34
2019-04-23T12:25:03.450Z,4.09
2019-04-23T12:27:25.368Z,3.81
2019-04-23T12:29:49.150Z,3.19
2019-04-23T12:40:15.390Z,3.96
2019-04-23T12:42:54.089Z,3.86
2019-04-23T12:45:20.626Z,3.84
2019-04-23T12:52:47.675Z,3.51
2019-04-23T12:55:23.408Z,3.81
2019-04-23T12:57:57.389Z,3.66
2019-04-23T13:02:52.009Z,3.74
2019-04-23T13:05:28.769Z,3.97
2019-04-23T13:08:25.290Z,4.51
2019-04-23T13:10:44.063Z,4.51
2019-04-23T13:13:18.904Z,4.75
2019-04-23T13:15:40.675Z,4.86
2019-04-23T13:18:23.618Z,5.05
2019-04-23T13:20:51.191Z,5.66
2019-04-23T13:23:30.768Z,5.78
2019-04-23T13:26:13.573Z,5.28
2019-04-23T13:34:19.537Z,6.10
2019-04-23T13:36:44.881Z,5.72
2019-04-23T13:39:18.659Z,6.19
2019-04-23T13:41:46.158Z,6.72
2019-04-23T13:44:19.607Z,8.49
2019-04-23T13:46:52.591Z,9.01
2019-04-23T13:49:28.459Z,9.41
2019-04-23T13:51:58.425Z,9.77
2019-04-23T13:54:46.634Z,8.29
2019-04-23T14:02:17.043Z,9.59
2019-04-23T14:04:46.813Z,9.56
2019-04-23T14:07:17.591Z,8.85
2019-04-23T14:10:00.555Z,9.27
2019-04-23T14:12:22.247Z,10.17
2019-04-23T14:15:02.286Z,10.43
2019-04-23T14:17:37.966Z,10.50
2019-04-23T14:20:03.807Z,10.55
2019-04-23T14:22:51.319Z,10.34
2019-04-23T14:32:35.256Z,11.08
2019-04-23T14:37:57.984Z,11.04
2019-04-23T14:40:21.950Z,11.12
2019-04-23T14:42:56.097Z,11.28
2019-04-23T14:45:44.239Z,11.65
2019-04-23T14:47:59.169Z,12.06
2019-04-23T14:50:34.841Z,12.39
2019-04-23T14:53:09.720Z,12.75
2019-04-23T14:58:17.670Z,12.95
2019-04-23T15:00:41.609Z,12.98
2019-04-23T15:03:20.245Z,12.85
2019-04-23T15:05:53.732Z,12.73
2019-04-23T15:08:15.611Z,13.35
2019-04-23T15:10:58.053Z,13.35
2019-04-23T15:13:16.892Z,14.02
2019-04-23T15:15:55.622Z,14.31
2019-04-23T15:18:23.945Z,14.54
2019-04-23T15:27:08.458Z,15.05
2019-04-23T15:27:13.487Z,14.80
2019-04-23T15:28:12.142Z,15.68
2019-04-23T15:31:22.403Z,15.70
2019-04-23T15:33:56.465Z,15.80
2019-04-23T15:43:52.221Z,18.30
2019-04-23T15:46:25.291Z,19.37
2019-04-23T15:49:05.652Z,18.84
2019-04-23T15:51:30.971Z,19.81
2019-04-23T15:53:57.013Z,20.44
2019-04-23T15:56:35.658Z,20.11
2019-04-23T16:01:31.962Z,21.99
2019-04-23T16:03:31.933Z,23.22
2019-04-23T16:06:04.708Z,23.50
2019-04-23T16:14:17.630Z,26.52
2019-04-23T16:19:44.934Z,27.62
2019-04-23T16:22:03.680Z,30.67
2019-04-23T16:24:24.895Z,30.96
2019-04-23T16:27:09.399Z,30.51
2019-04-23T16:32:15.337Z,33.25
2019-04-23T16:34:40.816Z,33.87
2019-04-23T16:39:58.350Z,37.03
2019-04-23T16:42:27.323Z,38.31
2019-04-23T16:47:26.499Z,40.07
2019-04-23T16:52:26.220Z,40.83
2019-04-23T16:55:00.554Z,39.99
2019-04-23T17:00:13.189Z,38.84
2019-04-23T17:03:02.668Z,39.48
2019-04-23T17:05:12.467Z,36.72
2019-04-23T17:07:36.279Z,39.12
2019-04-23T17:10:12.628Z,37.88
2019-04-23T17:12:46.923Z,38.05
2019-04-23T17:15:17.896Z,36.65
2019-04-23T17:17:49.913Z,36.67
2019-04-23T17:20:28.829Z,38.51
2019-04-23T17:22:59.550Z,38.32
2019-04-23T17:25:26.551Z,38.50
2019-04-23T17:30:37.341Z,36.52
2019-04-23T17:36:05.418Z,35.31
2019-04-23T17:38:37.691Z,35.67
2019-04-23T17:43:59.923Z,40.87
2019-04-23T17:46:26.928Z,40.36
2019-04-23T17:49:08.127Z,42.01
2019-04-23T17:51:51.978Z,40.50
2019-04-23T17:54:13.048Z,40.86
2019-04-23T17:56:51.160Z,41.34
2019-04-23T17:59:12.054Z,41.16
2019-04-23T18:01:54.257Z,46.57
2019-04-23T18:09:25.606Z,45.02
2019-04-23T18:11:53.429Z,45.55
2019-04-23T18:14:18.092Z,46.11
2019-04-23T18:16:57.457Z,46.60
2019-04-23T18:19:24.643Z,38.04
2019-04-23T18:22:15.561Z,37.43
2019-04-23T18:25:05.744Z,36.57
2019-04-23T18:27:33.771Z,35.92
2019-04-23T18:30:12.108Z,34.42
2019-04-23T18:33:12.476Z,34.51
2019-04-23T18:37:59.706Z,34.55
2019-04-23T18:40:28.592Z,35.09
2019-04-23T18:43:07.309Z,35.43
2019-04-23T18:45:39.089Z,36.00
2019-04-23T18:48:34.112Z,35.62
2019-04-23T18:50:53.692Z,34.61
2019-04-23T18:53:33.540Z,34.61
2019-04-23T18:58:36.592Z,35.34
2019-04-23T19:06:18.587Z,34.70
2019-04-23T19:11:37.113Z,35.25
2019-04-23T19:13:55.726Z,35.18
2019-04-23T19:16:24.589Z,35.02
2019-04-23T19:19:01.430Z,35.25
2019-04-23T19:21:47.354Z,34.24
2019-04-23T19:23:54.761Z,34.33
2019-04-23T19:26:55.238Z,34.75
2019-04-23T19:29:00.533Z,35.09
2019-04-23T19:31:50.657Z,34.67
2019-04-23T19:34:36.505Z,35.18
2019-04-23T19:37:45.752Z,35.14
2019-04-23T19:39:26.276Z,35.61
2019-04-23T19:42:02.028Z,34.80
2019-04-23T19:44:29.294Z,35.26
2019-04-23T19:47:09.532Z,34.14
2019-04-23T19:49:28.896Z,34.63
2019-04-23T20:02:07.377Z,34.13
2019-04-23T20:12:21.540Z,35.32
2019-04-23T20:17:37.759Z,34.63
2019-04-23T20:25:04.119Z,34.25
2019-04-23T20:27:25.770Z,33.55
2019-04-23T20:30:19.796Z,34.32
2019-04-23T20:38:15.380Z,33.47
2019-04-23T20:40:15.074Z,34.39
2019-04-23T20:42:48.188Z,33.99
2019-04-23T20:45:16.545Z,33.48
2019-04-23T20:48:05.001Z,33.40
2019-04-23T20:50:10.543Z,33.85
2019-04-23T20:52:47.606Z,34.22
2019-04-23T20:55:29.363Z,33.20
2019-04-23T20:58:07.232Z,32.88
2019-04-23T21:03:30.421Z,33.18
2019-04-23T21:05:43.092Z,34.03
2019-04-23T21:08:28.805Z,34.47
2019-04-23T21:10:51.045Z,33.92
2019-04-23T21:13:42.792Z,34.11
2019-04-23T21:15:54.573Z,34.16
2019-04-23T21:18:33.089Z,34.29
2019-04-23T21:21:06.338Z,34.19
2019-04-23T21:23:28.770Z,33.96
2019-04-23T21:26:08.191Z,33.86
2019-04-23T21:28:40.161Z,34.68
2019-04-23T21:41:50.948Z,35.92
2019-04-23T21:46:49.065Z,37.16
2019-04-23T21:49:26.969Z,37.31
2019-04-23T21:54:25.734Z,37.86
2019-04-23T21:56:48.267Z,37.30
2019-04-23T21:59:13.376Z,36.93
2019-04-23T22:01:55.824Z,36.19
2019-04-23T22:06:59.670Z,36.72
2019-04-23T22:12:16.920Z,36.07
2019-04-23T22:17:10.209Z,37.24
2019-04-23T22:19:38.351Z,38.05
2019-04-23T22:22:05.849Z,38.56
2019-04-23T22:24:48.282Z,38.48
2019-04-23T22:27:11.703Z,39.40
2019-04-23T22:29:44.696Z,38.53
2019-04-23T22:32:12.845Z,39.46
2019-04-23T22:34:58.837Z,38.98
2019-04-23T22:39:52.795Z,39.26
2019-04-23T22:42:36.683Z,39.37
2019-04-23T22:47:34.585Z,38.32
2019-04-23T22:52:31.487Z,37.82
2019-04-23T22:55:12.730Z,39.73
2019-04-23T22:58:01.918Z,40.89
2019-04-23T23:00:14.621Z,41.97
2019-04-23T23:05:53.532Z,43.97
2019-04-23T23:08:07.874Z,45.28
2019-04-23T23:10:46.151Z,46.15
2019-04-23T23:15:49.187Z,47.30
2019-04-23T23:23:18.142Z,45.21
2019-04-23T23:25:50.922Z,45.61
2019-04-23T23:31:02.000Z,46.59
2019-04-23T23:33:23.287Z,48.87
2019-04-23T23:35:58.878Z,48.72
2019-04-23T23:38:33.364Z,47.58
2019-04-23T23:43:33.885Z,47.32
2019-04-23T23:46:15.218Z,47.05
2019-04-23T23:48:35.941Z,48.24
2019-04-23T23:51:36.684Z,47.64
2019-04-23T23:56:17.379Z,46.76
2019-04-23T23:58:53.965Z,46.66
